createdAt,value
2023-03-29T00:02:30.167Z,17.70
2023-03-29T00:05:04.316Z,17.70
2023-03-29T00:07:33.398Z,17.70
2023-03-29T00:10:01.263Z,17.70
2023-03-29T00:12:28.330Z,17.70
2023-03-29T00:14:54.937Z,17.70
2023-03-29T00:17:21.545Z,17.70
2023-03-29T00:19:48.119Z,17.70
2023-03-29T00:22:15.177Z,17.80
2023-03-29T00:24:41.845Z,17.70
2023-03-29T00:27:08.392Z,17.70
2023-03-29T00:29:34.986Z,17.70
2023-03-29T00:32:01.552Z,17.70
2023-03-29T00:34:31.064Z,17.70
2023-03-29T00:36:58.232Z,17.70
2023-03-29T00:39:25.676Z,17.70
2023-03-29T00:41:52.375Z,17.70
2023-03-29T00:44:37.780Z,17.60
2023-03-29T00:47:04.356Z,17.60
2023-03-29T00:49:30.925Z,17.60
2023-03-29T00:51:57.481Z,17.60
2023-03-29T00:54:24.918Z,17.50
2023-03-29T00:56:51.640Z,17.60
2023-03-29T00:59:27.850Z,17.60
2023-03-29T01:01:59.792Z,17.60
2023-03-29T01:04:29.535Z,17.60
2023-03-29T01:07:13.522Z,17.50
2023-03-29T01:09:42.931Z,17.60
2023-03-29T01:12:13.212Z,17.50
2023-03-29T01:14:52.525Z,17.50
2023-03-29T01:17:21.869Z,17.50
2023-03-29T01:19:53.748Z,17.60
2023-03-29T01:22:20.323Z,17.60
2023-03-29T01:24:55.638Z,17.70
2023-03-29T01:27:40.533Z,17.70
2023-03-29T01:30:15.667Z,17.80
2023-03-29T01:32:46.106Z,17.80
2023-03-29T01:35:19.161Z,17.80
2023-03-29T01:37:49.386Z,17.80
2023-03-29T01:40:16.083Z,17.70
2023-03-29T01:42:46.570Z,17.70
2023-03-29T01:45:13.152Z,17.80
2023-03-29T01:48:01.092Z,17.60
2023-03-29T01:50:37.165Z,17.60
2023-03-29T01:53:07.763Z,17.60
2023-03-29T01:55:35.996Z,17.60
2023-03-29T01:58:04.372Z,17.60
2023-03-29T02:00:32.220Z,17.60
2023-03-29T02:03:01.088Z,17.60
2023-03-29T02:05:29.598Z,17.60
2023-03-29T02:07:57.452Z,17.60
2023-03-29T02:10:24.266Z,17.60
2023-03-29T02:12:51.245Z,17.60
2023-03-29T02:15:19.188Z,17.60
2023-03-29T02:17:46.553Z,17.60
2023-03-29T02:20:17.263Z,17.60
2023-03-29T02:22:48.254Z,17.60
2023-03-29T02:25:15.499Z,17.60
2023-03-29T02:27:42.231Z,17.50
2023-03-29T02:30:09.833Z,17.60
2023-03-29T02:32:45.604Z,17.60
2023-03-29T02:35:18.057Z,17.60
2023-03-29T02:37:47.640Z,17.60
2023-03-29T02:40:14.890Z,17.60
2023-03-29T02:42:43.405Z,17.60
2023-03-29T02:45:11.318Z,17.60
2023-03-29T02:47:41.318Z,17.60
2023-03-29T02:50:08.605Z,17.50
2023-03-29T02:52:37.117Z,17.60
2023-03-29T02:55:05.358Z,17.60
2023-03-29T02:57:32.460Z,17.60
2023-03-29T03:00:01.064Z,17.60
2023-03-29T03:02:27.884Z,17.60
2023-03-29T03:04:54.575Z,17.60
2023-03-29T03:07:21.424Z,17.50
2023-03-29T03:09:48.895Z,17.50
2023-03-29T03:12:15.569Z,17.50
2023-03-29T03:14:42.120Z,17.50
2023-03-29T03:17:08.684Z,17.50
2023-03-29T03:19:36.273Z,17.50
2023-03-29T03:22:03.096Z,17.80
2023-03-29T03:24:29.648Z,17.50
2023-03-29T03:26:56.720Z,17.60
2023-03-29T03:29:24.648Z,17.50
2023-03-29T03:31:53.834Z,17.70
2023-03-29T03:34:20.981Z,17.60
2023-03-29T03:36:47.555Z,17.70
2023-03-29T03:39:14.355Z,17.70
2023-03-29T03:41:41.014Z,17.70
2023-03-29T03:44:07.625Z,17.70
2023-03-29T03:46:35.196Z,17.70
2023-03-29T03:49:01.750Z,17.70
2023-03-29T03:51:28.286Z,17.60
2023-03-29T03:53:54.997Z,17.60
2023-03-29T03:56:21.628Z,17.60
2023-03-29T03:58:48.201Z,17.60
2023-03-29T04:01:14.806Z,17.60
2023-03-29T04:03:41.637Z,17.60
2023-03-29T04:06:09.740Z,17.60
2023-03-29T04:08:36.681Z,17.50
2023-03-29T04:11:04.584Z,17.50
2023-03-29T04:13:31.357Z,17.60
2023-03-29T04:16:00.947Z,17.50
2023-03-29T04:18:28.254Z,17.50
2023-03-29T04:20:54.995Z,17.60
2023-03-29T04:23:21.984Z,17.50
2023-03-29T04:25:48.558Z,17.50
2023-03-29T04:28:15.453Z,17.50
2023-03-29T04:30:42.077Z,17.50
2023-03-29T04:33:08.773Z,17.50
2023-03-29T04:35:35.485Z,17.50
2023-03-29T04:38:04.257Z,17.60
2023-03-29T04:40:30.880Z,17.50
2023-03-29T04:42:57.475Z,17.50
2023-03-29T04:45:24.045Z,17.50
2023-03-29T04:47:50.676Z,17.50
2023-03-29T04:50:17.374Z,17.60
2023-03-29T04:52:45.528Z,17.50
2023-03-29T04:55:12.729Z,17.50
2023-03-29T04:57:39.363Z,17.60
2023-03-29T05:00:14.242Z,17.50
2023-03-29T05:02:44.574Z,17.50
2023-03-29T05:05:11.710Z,18.00
2023-03-29T05:07:38.657Z,17.50
2023-03-29T05:10:06.547Z,17.50
2023-03-29T05:12:33.179Z,17.50
2023-03-29T05:14:59.859Z,17.50
2023-03-29T05:17:27.570Z,17.50
2023-03-29T05:19:54.321Z,17.50
2023-03-29T05:22:21.853Z,17.50
2023-03-29T05:24:48.937Z,17.50
2023-03-29T05:27:17.173Z,17.60
2023-03-29T05:29:44.923Z,17.20
2023-03-29T05:32:11.744Z,17.60
2023-03-29T05:34:39.138Z,17.70
2023-03-29T05:37:06.145Z,17.70
2023-03-29T05:39:34.604Z,17.60
2023-03-29T05:42:04.348Z,17.60
2023-03-29T05:44:31.098Z,17.60
2023-03-29T05:46:57.697Z,17.30
2023-03-29T05:49:24.237Z,17.60
2023-03-29T05:51:52.018Z,17.60
2023-03-29T05:54:18.676Z,17.60
2023-03-29T05:56:45.485Z,17.60
2023-03-29T05:59:13.745Z,17.60
2023-03-29T06:01:43.263Z,17.50
2023-03-29T06:04:10.793Z,17.50
2023-03-29T06:06:37.922Z,17.60
2023-03-29T06:09:05.320Z,17.60
2023-03-29T06:11:33.852Z,17.50
2023-03-29T06:14:02.793Z,17.50
2023-03-29T06:16:29.403Z,17.50
2023-03-29T06:18:56.701Z,18.00
2023-03-29T06:21:24.613Z,17.50
2023-03-29T06:23:51.539Z,17.50
2023-03-29T06:26:18.997Z,17.50
2023-03-29T06:28:46.274Z,17.60
2023-03-29T06:31:13.221Z,17.60
2023-03-29T06:33:42.215Z,17.60
2023-03-29T06:36:09.643Z,17.60
2023-03-29T06:38:37.318Z,17.70
2023-03-29T06:41:05.362Z,17.70
2023-03-29T06:43:33.866Z,17.70
2023-03-29T06:46:02.381Z,17.80
2023-03-29T06:48:29.654Z,17.80
2023-03-29T06:50:58.677Z,17.80
2023-03-29T06:53:26.577Z,17.80
2023-03-29T06:55:53.331Z,17.40
2023-03-29T06:58:21.410Z,17.70
2023-03-29T07:00:52.312Z,17.70
2023-03-29T07:03:24.228Z,17.70
2023-03-29T07:05:52.228Z,17.70
2023-03-29T07:08:21.989Z,17.60
2023-03-29T07:10:52.982Z,17.70
2023-03-29T07:13:20.102Z,17.60
2023-03-29T07:15:47.887Z,17.60
2023-03-29T07:18:15.774Z,17.60
2023-03-29T07:20:43.072Z,17.60
2023-03-29T07:23:10.625Z,17.60
2023-03-29T07:25:38.408Z,17.70
2023-03-29T07:28:06.321Z,17.40
2023-03-29T07:30:35.022Z,17.60
2023-03-29T07:33:01.945Z,17.50
2023-03-29T07:35:31.312Z,17.50
2023-03-29T07:38:00.078Z,17.50
2023-03-29T07:40:27.592Z,17.50
2023-03-29T07:42:56.004Z,17.60
2023-03-29T07:45:26.484Z,17.50
2023-03-29T07:47:54.736Z,17.70
2023-03-29T07:50:21.423Z,17.50
2023-03-29T07:52:48.370Z,17.50
2023-03-29T07:55:15.136Z,17.50
2023-03-29T07:57:44.527Z,17.50
2023-03-29T08:00:16.188Z,17.60
2023-03-29T08:02:44.445Z,17.50
2023-03-29T08:05:13.300Z,17.60
2023-03-29T08:07:41.437Z,17.50
2023-03-29T08:10:09.999Z,17.60
2023-03-29T08:12:37.589Z,17.60
2023-03-29T08:15:05.436Z,17.60
2023-03-29T08:17:32.688Z,17.70
2023-03-29T08:20:00.196Z,17.70
2023-03-29T08:22:27.045Z,17.70
2023-03-29T08:24:55.237Z,17.80
2023-03-29T08:27:22.473Z,17.80
2023-03-29T08:29:49.054Z,17.90
2023-03-29T08:35:00.094Z,17.80
2023-03-29T08:37:27.211Z,17.80
2023-03-29T08:39:54.146Z,17.90
2023-03-29T08:42:21.277Z,17.80
2023-03-29T08:45:02.960Z,17.80
2023-03-29T08:47:35.625Z,17.80
2023-03-29T08:50:02.879Z,17.80
2023-03-29T08:52:37.981Z,17.70
2023-03-29T08:55:14.505Z,17.60
2023-03-29T08:57:46.502Z,17.60
2023-03-29T09:00:32.377Z,17.50
2023-03-29T09:03:02.481Z,17.70
2023-03-29T09:05:39.763Z,17.70
2023-03-29T09:08:16.332Z,17.60
2023-03-29T09:10:48.144Z,17.60
2023-03-29T09:13:15.059Z,17.60
2023-03-29T09:15:52.498Z,17.60
2023-03-29T09:18:34.929Z,17.60
2023-03-29T09:21:11.336Z,17.60
2023-03-29T09:23:57.598Z,17.70
2023-03-29T09:26:31.520Z,17.60
2023-03-29T09:29:09.002Z,17.60
2023-03-29T09:31:39.309Z,17.60
2023-03-29T09:34:13.702Z,17.60
2023-03-29T09:36:44.800Z,17.60
2023-03-29T09:39:13.490Z,17.60
2023-03-29T09:41:57.210Z,17.70
2023-03-29T09:44:31.235Z,17.60
2023-03-29T09:47:01.984Z,17.80
2023-03-29T09:49:34.576Z,17.60
2023-03-29T09:52:03.444Z,17.60
2023-03-29T09:54:31.088Z,17.60
2023-03-29T09:56:59.015Z,17.60
2023-03-29T09:59:25.676Z,17.60
2023-03-29T10:01:53.554Z,17.70
2023-03-29T10:04:23.219Z,17.80
2023-03-29T10:06:52.135Z,17.60
2023-03-29T10:09:23.044Z,17.80
2023-03-29T10:11:55.137Z,17.60
2023-03-29T10:14:37.029Z,17.60
2023-03-29T10:17:18.524Z,17.70
2023-03-29T10:19:52.492Z,17.70
2023-03-29T10:22:22.880Z,17.70
2023-03-29T10:24:51.694Z,17.80
2023-03-29T10:27:20.362Z,17.80
2023-03-29T10:29:47.145Z,17.80
2023-03-29T10:32:34.206Z,17.90
2023-03-29T10:35:41.487Z,17.80
2023-03-29T10:38:15.993Z,17.80
2023-03-29T10:40:47.156Z,17.80
2023-03-29T10:43:20.538Z,17.80
2023-03-29T10:45:48.605Z,17.80
2023-03-29T10:48:16.338Z,17.70
2023-03-29T10:50:47.863Z,17.80
2023-03-29T10:53:17.601Z,18.00
2023-03-29T10:55:51.710Z,17.70
2023-03-29T10:58:38.524Z,17.70
2023-03-29T11:01:05.867Z,17.70
2023-03-29T11:03:47.557Z,17.90
2023-03-29T11:06:19.335Z,17.70
2023-03-29T11:09:12.161Z,17.70
2023-03-29T11:12:12.207Z,17.70
2023-03-29T11:14:45.012Z,17.70
2023-03-29T11:17:22.490Z,17.70
2023-03-29T11:20:03.649Z,17.70
2023-03-29T11:22:50.588Z,17.70
2023-03-29T11:25:22.340Z,17.70
2023-03-29T11:27:52.248Z,17.60
2023-03-29T11:30:18.941Z,17.70
2023-03-29T11:32:45.936Z,17.70
2023-03-29T11:35:32.217Z,18.30
2023-03-29T11:38:11.146Z,17.80
2023-03-29T11:40:55.490Z,17.80
2023-03-29T11:43:28.876Z,17.90
2023-03-29T11:45:58.945Z,18.30
2023-03-29T11:48:27.971Z,18.30
2023-03-29T11:51:06.932Z,17.50
2023-03-29T11:53:42.681Z,18.10
2023-03-29T11:56:13.498Z,18.10
2023-03-29T11:58:42.464Z,18.10
2023-03-29T12:01:25.652Z,18.00
2023-03-29T12:04:06.759Z,18.00
2023-03-29T12:06:37.782Z,18.00
2023-03-29T12:09:07.489Z,18.00
2023-03-29T12:11:39.496Z,18.00
2023-03-29T12:14:11.821Z,17.90
2023-03-29T12:17:00.894Z,17.90
2023-03-29T12:19:39.686Z,17.90
2023-03-29T12:22:08.896Z,17.90
2023-03-29T12:24:38.716Z,17.90
2023-03-29T12:27:19.882Z,17.90
2023-03-29T12:29:53.226Z,17.90
2023-03-29T12:32:38.627Z,17.90
2023-03-29T12:35:19.939Z,17.90
2023-03-29T12:37:49.410Z,17.80
2023-03-29T12:40:17.598Z,17.80
2023-03-29T12:42:54.332Z,18.00
2023-03-29T12:45:29.094Z,17.80
2023-03-29T12:47:55.988Z,17.80
2023-03-29T12:50:42.872Z,17.80
2023-03-29T12:53:18.910Z,17.90
2023-03-29T12:56:01.057Z,18.00
2023-03-29T12:58:40.194Z,18.00
2023-03-29T13:01:24.112Z,18.10
2023-03-29T13:03:52.657Z,18.10
2023-03-29T13:06:32.863Z,18.10
2023-03-29T13:09:00.980Z,18.20
2023-03-29T13:11:31.676Z,18.20
2023-03-29T13:14:00.419Z,18.20
2023-03-29T13:16:31.473Z,18.10
2023-03-29T13:19:16.854Z,18.10
2023-03-29T13:21:46.555Z,18.10
2023-03-29T13:24:25.865Z,17.90
2023-03-29T13:27:00.692Z,18.10
2023-03-29T13:29:36.538Z,18.00
2023-03-29T13:32:03.086Z,18.00
2023-03-29T13:34:49.919Z,18.00
2023-03-29T13:37:28.465Z,18.00
2023-03-29T13:39:55.546Z,18.00
2023-03-29T13:42:37.208Z,18.00
2023-03-29T13:45:26.196Z,18.00
2023-03-29T13:50:33.095Z,17.90
2023-03-29T13:53:03.957Z,18.00
2023-03-29T13:55:34.374Z,17.90
2023-03-29T13:58:04.309Z,17.90
2023-03-29T14:00:36.981Z,17.90
2023-03-29T14:03:09.140Z,17.90
2023-03-29T14:05:38.070Z,17.90
2023-03-29T14:08:10.014Z,17.90
2023-03-29T14:10:41.264Z,17.90
2023-03-29T14:13:12.608Z,17.90
2023-03-29T14:15:43.074Z,17.90
2023-03-29T14:18:10.921Z,17.90
2023-03-29T14:20:37.871Z,17.90
2023-03-29T14:23:13.263Z,17.90
2023-03-29T14:25:41.739Z,17.90
2023-03-29T14:28:40.751Z,17.90
2023-03-29T14:31:16.487Z,17.90
2023-03-29T14:33:43.080Z,17.90
2023-03-29T14:36:12.474Z,18.00
2023-03-29T14:38:39.611Z,18.10
2023-03-29T14:41:07.474Z,18.10
2023-03-29T14:43:34.102Z,18.10
2023-03-29T14:46:02.797Z,18.10
2023-03-29T14:48:32.983Z,18.10
2023-03-29T14:51:00.015Z,18.10
2023-03-29T14:53:28.810Z,18.10
2023-03-29T14:55:55.588Z,18.10
2023-03-29T14:58:23.251Z,18.10
2023-03-29T15:00:50.962Z,18.10
2023-03-29T15:03:18.087Z,18.10
2023-03-29T15:05:52.422Z,18.10
2023-03-29T15:08:36.262Z,18.10
2023-03-29T15:11:03.123Z,18.10
2023-03-29T15:13:30.565Z,18.00
2023-03-29T15:16:00.757Z,18.00
2023-03-29T15:18:32.758Z,18.00
2023-03-29T15:20:59.694Z,17.90
2023-03-29T15:23:26.390Z,18.00
2023-03-29T15:25:53.152Z,17.90
2023-03-29T15:28:28.245Z,18.00
2023-03-29T15:33:38.463Z,17.90
2023-03-29T15:36:06.419Z,18.00
2023-03-29T15:38:43.250Z,18.00
2023-03-29T15:41:11.339Z,18.00
2023-03-29T15:43:38.002Z,17.90
2023-03-29T15:46:05.190Z,17.90
2023-03-29T15:48:33.628Z,17.90
2023-03-29T15:51:04.833Z,17.90
2023-03-29T15:53:33.200Z,18.00
2023-03-29T15:56:01.188Z,17.90
2023-03-29T15:58:29.713Z,18.00
2023-03-29T16:01:11.168Z,17.90
2023-03-29T16:03:38.513Z,17.80
2023-03-29T16:06:05.882Z,17.80
2023-03-29T16:08:32.430Z,17.80
2023-03-29T16:10:58.988Z,17.90
2023-03-29T16:13:25.637Z,17.90
2023-03-29T16:15:52.280Z,17.90
2023-03-29T16:18:18.827Z,18.00
2023-03-29T16:20:46.576Z,18.00
2023-03-29T16:23:13.309Z,18.00
2023-03-29T16:25:40.385Z,18.20
2023-03-29T16:28:08.445Z,18.10
2023-03-29T16:30:35.928Z,18.20
2023-03-29T16:33:08.362Z,18.20
2023-03-29T16:35:40.045Z,18.30
2023-03-29T16:38:07.243Z,18.10
2023-03-29T16:40:34.304Z,18.10
2023-03-29T16:43:01.588Z,18.10
2023-03-29T16:45:28.552Z,18.10
2023-03-29T16:47:56.031Z,18.10
2023-03-29T16:50:22.666Z,18.10
2023-03-29T16:52:51.395Z,18.00
2023-03-29T16:55:18.965Z,18.00
2023-03-29T16:57:46.560Z,18.00
2023-03-29T17:00:19.416Z,18.00
2023-03-29T17:02:49.553Z,18.00
2023-03-29T17:05:16.852Z,18.20
2023-03-29T17:07:43.484Z,18.10
2023-03-29T17:10:11.008Z,18.00
2023-03-29T17:12:37.968Z,18.00
2023-03-29T17:15:05.422Z,17.90
2023-03-29T17:17:32.088Z,18.00
2023-03-29T17:19:58.747Z,18.00
2023-03-29T17:22:25.757Z,18.00
2023-03-29T17:24:52.339Z,18.00
2023-03-29T17:27:19.008Z,18.00
2023-03-29T17:29:45.574Z,18.00
2023-03-29T17:32:12.218Z,18.10
2023-03-29T17:34:38.943Z,18.20
2023-03-29T17:37:05.561Z,18.20
2023-03-29T17:39:33.100Z,18.20
2023-03-29T17:41:59.690Z,18.30
2023-03-29T17:44:26.934Z,18.30
2023-03-29T17:46:53.560Z,18.30
2023-03-29T17:49:20.435Z,18.60
2023-03-29T17:51:46.976Z,18.30
2023-03-29T17:54:13.602Z,18.30
2023-03-29T17:56:40.264Z,18.30
2023-03-29T17:59:06.906Z,18.20
2023-03-29T18:01:33.529Z,18.20
2023-03-29T18:04:00.156Z,18.20
2023-03-29T18:06:26.784Z,18.20
2023-03-29T18:08:53.442Z,18.10
2023-03-29T18:11:22.823Z,18.10
2023-03-29T18:13:50.408Z,18.20
2023-03-29T18:16:17.335Z,18.10
2023-03-29T18:18:44.253Z,18.10
2023-03-29T18:21:10.840Z,18.10
2023-03-29T18:23:39.833Z,18.00
2023-03-29T18:26:07.393Z,18.10
2023-03-29T18:28:34.762Z,18.00
2023-03-29T18:31:01.337Z,18.00
2023-03-29T18:33:30.696Z,18.10
2023-03-29T18:35:57.390Z,18.10
2023-03-29T18:38:24.049Z,18.10
2023-03-29T18:40:50.673Z,18.00
2023-03-29T18:43:17.673Z,18.00
2023-03-29T18:45:44.701Z,18.00
2023-03-29T18:48:11.349Z,18.00
2023-03-29T18:50:38.792Z,18.00
2023-03-29T18:53:05.417Z,17.90
2023-03-29T18:55:32.076Z,17.90
2023-03-29T18:57:58.625Z,17.90
2023-03-29T19:00:25.279Z,18.00
2023-03-29T19:02:52.127Z,18.00
2023-03-29T19:05:18.782Z,18.00
2023-03-29T19:07:45.380Z,18.10
2023-03-29T19:10:12.198Z,18.10
2023-03-29T19:12:38.888Z,18.10
2023-03-29T19:15:05.795Z,18.10
2023-03-29T19:17:32.557Z,18.10
2023-03-29T19:19:59.288Z,18.10
2023-03-29T19:22:26.518Z,18.10
2023-03-29T19:24:53.103Z,18.10
2023-03-29T19:27:19.827Z,18.10
2023-03-29T19:29:48.068Z,18.10
2023-03-29T19:32:14.700Z,18.10
2023-03-29T19:34:41.423Z,17.90
2023-03-29T19:37:07.992Z,18.00
2023-03-29T19:39:34.951Z,18.00
2023-03-29T19:42:01.529Z,18.00
2023-03-29T19:44:28.114Z,18.00
2023-03-29T19:46:54.695Z,18.10
2023-03-29T19:49:21.282Z,18.00
2023-03-29T19:51:48.029Z,18.00
2023-03-29T19:54:14.635Z,17.90
2023-03-29T19:56:42.919Z,17.90
2023-03-29T19:59:11.111Z,17.90
2023-03-29T20:01:40.574Z,17.90
2023-03-29T20:04:07.686Z,17.90
2023-03-29T20:06:34.787Z,17.90
2023-03-29T20:09:01.653Z,17.90
2023-03-29T20:11:28.904Z,17.90
2023-03-29T20:13:55.499Z,17.90
2023-03-29T20:16:24.341Z,17.90
2023-03-29T20:18:53.834Z,17.90
2023-03-29T20:21:20.434Z,17.80
2023-03-29T20:23:47.317Z,17.80
2023-03-29T20:26:14.178Z,17.80
2023-03-29T20:28:40.748Z,17.80
2023-03-29T20:31:08.123Z,17.80
2023-03-29T20:33:34.734Z,17.90
2023-03-29T20:36:01.451Z,18.10
2023-03-29T20:38:28.105Z,17.90
2023-03-29T20:40:55.323Z,17.30
2023-03-29T20:43:22.155Z,17.80
2023-03-29T20:45:53.573Z,17.90
2023-03-29T20:48:30.103Z,17.90
2023-03-29T20:50:58.406Z,17.90
2023-03-29T20:53:25.796Z,17.90
2023-03-29T20:55:52.649Z,17.80
2023-03-29T20:58:19.333Z,17.80
2023-03-29T21:00:48.351Z,17.90
2023-03-29T21:03:15.068Z,17.90
2023-03-29T21:05:41.749Z,17.90
2023-03-29T21:08:08.449Z,18.00
2023-03-29T21:10:36.481Z,18.00
2023-03-29T21:13:03.131Z,18.00
2023-03-29T21:15:30.701Z,18.10
2023-03-29T21:17:58.094Z,18.10
2023-03-29T21:20:24.869Z,18.10
2023-03-29T21:22:51.689Z,18.10
2023-03-29T21:25:18.852Z,18.00
2023-03-29T21:27:45.715Z,18.00
2023-03-29T21:30:12.517Z,18.00
2023-03-29T21:32:39.185Z,18.00
2023-03-29T21:35:06.407Z,18.00
2023-03-29T21:37:33.034Z,18.00
2023-03-29T21:39:59.618Z,18.00
2023-03-29T21:42:26.563Z,18.00
2023-03-29T21:44:53.166Z,18.00
2023-03-29T21:47:19.820Z,18.00
2023-03-29T21:49:46.387Z,18.00
2023-03-29T21:52:12.929Z,18.00
2023-03-29T21:54:39.489Z,18.00
2023-03-29T21:57:06.051Z,18.00
2023-03-29T21:59:32.829Z,17.90
2023-03-29T22:01:59.386Z,18.00
2023-03-29T22:04:35.780Z,18.00
2023-03-29T22:07:02.991Z,18.00
2023-03-29T22:09:29.731Z,18.00
2023-03-29T22:11:56.888Z,17.90
2023-03-29T22:14:23.531Z,17.90
2023-03-29T22:16:50.222Z,17.90
2023-03-29T22:19:16.834Z,17.40
2023-03-29T22:21:44.123Z,17.90
2023-03-29T22:24:10.943Z,17.90
2023-03-29T22:26:37.547Z,18.00
2023-03-29T22:29:04.137Z,18.00
2023-03-29T22:31:31.325Z,18.00
2023-03-29T22:33:58.600Z,17.90
2023-03-29T22:36:26.552Z,17.90
2023-03-29T22:38:53.730Z,17.90
2023-03-29T22:41:22.641Z,18.00
2023-03-29T22:43:52.588Z,18.00
2023-03-29T22:46:19.379Z,18.00
2023-03-29T22:48:46.315Z,18.00
2023-03-29T22:51:13.172Z,18.20
2023-03-29T22:53:39.927Z,18.00
2023-03-29T22:56:07.813Z,18.10
2023-03-29T22:58:34.991Z,18.10
2023-03-29T23:01:01.702Z,18.10
2023-03-29T23:03:28.578Z,18.20
2023-03-29T23:05:56.441Z,18.20
2023-03-29T23:08:23.676Z,18.10
2023-03-29T23:10:50.403Z,18.10
2023-03-29T23:13:20.571Z,18.10
2023-03-29T23:15:48.074Z,18.10
2023-03-29T23:18:19.671Z,18.10
2023-03-29T23:20:47.209Z,18.10
2023-03-29T23:23:14.347Z,18.40
2023-03-29T23:25:42.302Z,18.20
2023-03-29T23:28:08.878Z,18.00
2023-03-29T23:30:38.462Z,18.00
2023-03-29T23:33:05.776Z,18.00
2023-03-29T23:35:32.581Z,18.00
2023-03-29T23:37:59.709Z,18.00
2023-03-29T23:40:27.896Z,18.10
2023-03-29T23:42:59.340Z,18.00
2023-03-29T23:45:29.122Z,17.90
2023-03-29T23:47:57.053Z,17.90
2023-03-29T23:50:23.736Z,18.50
2023-03-29T23:52:51.494Z,18.00
2023-03-29T23:55:18.907Z,18.00
2023-03-29T23:57:45.788Z,18.00
